sensor_id;sensor_type;location;lat;lon;timestamp;temperature;humidity
22682;DHT22;11508;50.856;4.380;2022-07-01T00:02:16;13.90;99.90
22682;DHT22;11508;50.856;4.380;2022-07-01T00:04:42;14.00;99.90
22682;DHT22;11508;50.856;4.380;2022-07-01T00:07:08;14.00;99.90
22682;DHT22;11508;50.856;4.380;2022-07-01T00:09:36;14.00;99.90
22682;DHT22;11508;50.856;4.380;2022-07-01T00:12:01;14.00;99.90
22682;DHT22;11508;50.856;4.380;2022-07-01T00:14:27;14.00;99.90
22682;DHT22;11508;50.856;4.380;2022-07-01T00:16:53;14.00;99.90
22682;DHT22;11508;50.856;4.380;2022-07-01T00:19:18;14.00;99.90
22682;DHT22;11508;50.856;4.380;2022-07-01T00:21:44;14.00;99.90
22682;DHT22;11508;50.856;4.380;2022-07-01T00:24:10;14.00;99.90
22682;DHT22;11508;50.856;4.380;2022-07-01T00:26:36;14.00;99.90
22682;DHT22;11508;50.856;4.380;2022-07-01T00:29:01;14.00;99.90
22682;DHT22;11508;50.856;4.380;2022-07-01T00:31:27;14.00;99.90
22682;DHT22;11508;50.856;4.380;2022-07-01T00:33:53;13.90;99.90
22682;DHT22;11508;50.856;4.380;2022-07-01T00:36:19;13.90;99.90
22682;DHT22;11508;50.856;4.380;2022-07-01T00:38:44;13.80;99.90
22682;DHT22;11508;50.856;4.380;2022-07-01T00:41:10;13.80;99.90
22682;DHT22;11508;50.856;4.380;2022-07-01T00:43:36;13.80;99.90
22682;DHT22;11508;50.856;4.380;2022-07-01T00:46:03;13.80;99.90
22682;DHT22;11508;50.856;4.380;2022-07-01T00:48:34;13.80;99.90
22682;DHT22;11508;50.856;4.380;2022-07-01T00:51:00;13.80;99.90
22682;DHT22;11508;50.856;4.380;2022-07-01T00:53:25;13.80;99.90
22682;DHT22;11508;50.856;4.380;2022-07-01T00:55:53;13.80;99.90
22682;DHT22;11508;50.856;4.380;2022-07-01T00:58:18;13.80;99.90
22682;DHT22;11508;50.856;4.380;2022-07-01T01:00:44;13.90;99.90
22682;DHT22;11508;50.856;4.380;2022-07-01T01:03:10;13.90;99.90
22682;DHT22;11508;50.856;4.380;2022-07-01T01:05:37;13.90;99.90
22682;DHT22;11508;50.856;4.380;2022-07-01T01:08:04;13.90;99.90
22682;DHT22;11508;50.856;4.380;2022-07-01T01:10:31;13.90;99.90
22682;DHT22;11508;50.856;4.380;2022-07-01T01:12:57;14.00;99.90
22682;DHT22;11508;50.856;4.380;2022-07-01T01:15:23;14.00;99.90
22682;DHT22;11508;50.856;4.380;2022-07-01T01:17:49;14.00;99.90
22682;DHT22;11508;50.856;4.380;2022-07-01T01:20:16;14.00;99.90
22682;DHT22;11508;50.856;4.380;2022-07-01T01:22:46;14.00;99.90
22682;DHT22;11508;50.856;4.380;2022-07-01T01:25:12;14.10;99.90
22682;DHT22;11508;50.856;4.380;2022-07-01T01:27:38;14.20;99.90
22682;DHT22;11508;50.856;4.380;2022-07-01T01:30:08;14.20;99.90
22682;DHT22;11508;50.856;4.380;2022-07-01T01:32:35;14.10;99.90
22682;DHT22;11508;50.856;4.380;2022-07-01T01:35:02;14.00;99.90
22682;DHT22;11508;50.856;4.380;2022-07-01T01:37:27;14.00;99.90
22682;DHT22;11508;50.856;4.380;2022-07-01T01:39:54;14.10;99.90
22682;DHT22;11508;50.856;4.380;2022-07-01T01:42:20;14.00;99.90
22682;DHT22;11508;50.856;4.380;2022-07-01T01:44:45;14.00;99.90
22682;DHT22;11508;50.856;4.380;2022-07-01T01:47:11;14.20;99.90
22682;DHT22;11508;50.856;4.380;2022-07-01T01:49:37;14.20;99.90
22682;DHT22;11508;50.856;4.380;2022-07-01T01:52:03;14.00;99.90
22682;DHT22;11508;50.856;4.380;2022-07-01T01:54:29;14.00;99.90
22682;DHT22;11508;50.856;4.380;2022-07-01T01:56:55;14.00;99.90
22682;DHT22;11508;50.856;4.380;2022-07-01T01:59:21;14.00;99.90
22682;DHT22;11508;50.856;4.380;2022-07-01T02:01:46;13.90;99.90
22682;DHT22;11508;50.856;4.380;2022-07-01T02:04:13;13.90;99.90
22682;DHT22;11508;50.856;4.380;2022-07-01T02:06:39;13.90;99.90
22682;DHT22;11508;50.856;4.380;2022-07-01T02:09:06;13.80;99.90
22682;DHT22;11508;50.856;4.380;2022-07-01T02:11:32;13.80;99.90
22682;DHT22;11508;50.856;4.380;2022-07-01T02:13:58;13.90;99.90
22682;DHT22;11508;50.856;4.380;2022-07-01T02:16:24;13.90;99.90
22682;DHT22;11508;50.856;4.380;2022-07-01T02:18:49;13.80;99.90
22682;DHT22;11508;50.856;4.380;2022-07-01T02:21:15;13.70;99.90
22682;DHT22;11508;50.856;4.380;2022-07-01T02:23:41;13.70;99.90
22682;DHT22;11508;50.856;4.380;2022-07-01T02:26:06;13.70;99.90
22682;DHT22;11508;50.856;4.380;2022-07-01T02:28:32;13.70;99.90
22682;DHT22;11508;50.856;4.380;2022-07-01T02:30:58;13.70;99.90
22682;DHT22;11508;50.856;4.380;2022-07-01T02:33:25;13.80;99.90
22682;DHT22;11508;50.856;4.380;2022-07-01T02:35:51;13.80;99.90
22682;DHT22;11508;50.856;4.380;2022-07-01T02:38:17;13.90;99.90
22682;DHT22;11508;50.856;4.380;2022-07-01T02:40:42;13.90;99.90
22682;DHT22;11508;50.856;4.380;2022-07-01T02:43:08;14.00;99.90
22682;DHT22;11508;50.856;4.380;2022-07-01T02:45:34;13.80;99.90
22682;DHT22;11508;50.856;4.380;2022-07-01T02:48:01;13.70;99.90
22682;DHT22;11508;50.856;4.380;2022-07-01T02:50:27;13.70;99.90
22682;DHT22;11508;50.856;4.380;2022-07-01T02:52:53;13.80;99.90
22682;DHT22;11508;50.856;4.380;2022-07-01T02:55:19;13.80;99.90
22682;DHT22;11508;50.856;4.380;2022-07-01T02:57:45;13.80;99.90
22682;DHT22;11508;50.856;4.380;2022-07-01T03:00:13;13.70;99.90
22682;DHT22;11508;50.856;4.380;2022-07-01T03:02:39;13.60;99.90
22682;DHT22;11508;50.856;4.380;2022-07-01T03:05:06;13.60;99.90
22682;DHT22;11508;50.856;4.380;2022-07-01T03:07:32;13.60;99.90
22682;DHT22;11508;50.856;4.380;2022-07-01T03:10:00;13.60;99.90
22682;DHT22;11508;50.856;4.380;2022-07-01T03:12:26;13.60;99.90
22682;DHT22;11508;50.856;4.380;2022-07-01T03:15:11;13.60;99.90
22682;DHT22;11508;50.856;4.380;2022-07-01T03:17:39;13.60;99.90
22682;DHT22;11508;50.856;4.380;2022-07-01T03:20:07;13.60;99.90
22682;DHT22;11508;50.856;4.380;2022-07-01T03:22:34;13.70;99.90
22682;DHT22;11508;50.856;4.380;2022-07-01T03:25:00;13.60;99.90
22682;DHT22;11508;50.856;4.380;2022-07-01T03:27:33;13.60;99.90
22682;DHT22;11508;50.856;4.380;2022-07-01T03:29:59;13.60;99.90
22682;DHT22;11508;50.856;4.380;2022-07-01T03:32:25;13.50;99.90
22682;DHT22;11508;50.856;4.380;2022-07-01T03:34:51;13.50;99.90
22682;DHT22;11508;50.856;4.380;2022-07-01T03:37:19;13.60;99.90
22682;DHT22;11508;50.856;4.380;2022-07-01T03:39:46;13.50;99.90
22682;DHT22;11508;50.856;4.380;2022-07-01T03:42:12;13.50;99.90
22682;DHT22;11508;50.856;4.380;2022-07-01T03:44:38;13.60;99.90
22682;DHT22;11508;50.856;4.380;2022-07-01T03:47:04;13.50;99.90
22682;DHT22;11508;50.856;4.380;2022-07-01T03:49:34;13.50;99.90
22682;DHT22;11508;50.856;4.380;2022-07-01T03:52:00;13.50;99.90
22682;DHT22;11508;50.856;4.380;2022-07-01T03:54:25;13.50;99.90
22682;DHT22;11508;50.856;4.380;2022-07-01T03:57:08;13.50;99.90
22682;DHT22;11508;50.856;4.380;2022-07-01T03:59:39;13.60;99.90
22682;DHT22;11508;50.856;4.380;2022-07-01T04:02:05;13.50;99.90
22682;DHT22;11508;50.856;4.380;2022-07-01T04:04:32;13.50;99.90
22682;DHT22;11508;50.856;4.380;2022-07-01T04:07:00;13.50;99.90
22682;DHT22;11508;50.856;4.380;2022-07-01T04:09:28;13.50;99.90
22682;DHT22;11508;50.856;4.380;2022-07-01T04:11:55;13.50;99.90
22682;DHT22;11508;50.856;4.380;2022-07-01T04:14:21;13.50;99.90
22682;DHT22;11508;50.856;4.380;2022-07-01T04:16:47;13.50;99.90
22682;DHT22;11508;50.856;4.380;2022-07-01T04:19:16;13.40;99.90
22682;DHT22;11508;50.856;4.380;2022-07-01T04:21:42;13.50;99.90
22682;DHT22;11508;50.856;4.380;2022-07-01T04:24:27;13.60;99.90
22682;DHT22;11508;50.856;4.380;2022-07-01T04:26:54;13.70;99.90
22682;DHT22;11508;50.856;4.380;2022-07-01T04:29:20;13.60;99.90
22682;DHT22;11508;50.856;4.380;2022-07-01T04:31:46;13.60;99.90
22682;DHT22;11508;50.856;4.380;2022-07-01T04:34:13;13.50;99.90
22682;DHT22;11508;50.856;4.380;2022-07-01T04:36:39;13.50;99.90
22682;DHT22;11508;50.856;4.380;2022-07-01T04:39:05;13.50;99.90
22682;DHT22;11508;50.856;4.380;2022-07-01T04:41:31;13.50;99.90
22682;DHT22;11508;50.856;4.380;2022-07-01T04:44:16;13.50;99.90
22682;DHT22;11508;50.856;4.380;2022-07-01T04:46:42;13.60;99.90
22682;DHT22;11508;50.856;4.380;2022-07-01T04:49:07;13.60;99.90
22682;DHT22;11508;50.856;4.380;2022-07-01T04:51:34;13.50;99.90
22682;DHT22;11508;50.856;4.380;2022-07-01T04:54:04;13.50;99.90
22682;DHT22;11508;50.856;4.380;2022-07-01T04:56:30;13.50;99.90
22682;DHT22;11508;50.856;4.380;2022-07-01T04:58:56;13.60;99.90
22682;DHT22;11508;50.856;4.380;2022-07-01T05:01:22;13.80;99.90
22682;DHT22;11508;50.856;4.380;2022-07-01T05:03:48;14.00;99.90
22682;DHT22;11508;50.856;4.380;2022-07-01T05:06:14;14.20;99.90
22682;DHT22;11508;50.856;4.380;2022-07-01T05:08:40;14.00;99.90
22682;DHT22;11508;50.856;4.380;2022-07-01T05:11:05;14.30;99.90
22682;DHT22;11508;50.856;4.380;2022-07-01T05:13:32;14.10;99.90
22682;DHT22;11508;50.856;4.380;2022-07-01T05:15:59;14.00;99.90
22682;DHT22;11508;50.856;4.380;2022-07-01T05:18:25;14.00;99.90
22682;DHT22;11508;50.856;4.380;2022-07-01T05:21:10;13.90;99.90
22682;DHT22;11508;50.856;4.380;2022-07-01T05:23:54;13.90;99.90
22682;DHT22;11508;50.856;4.380;2022-07-01T05:26:20;13.80;99.90
22682;DHT22;11508;50.856;4.380;2022-07-01T05:28:46;13.80;99.90
22682;DHT22;11508;50.856;4.380;2022-07-01T05:31:12;13.90;99.90
22682;DHT22;11508;50.856;4.380;2022-07-01T05:33:38;14.10;99.90
22682;DHT22;11508;50.856;4.380;2022-07-01T05:36:04;14.20;99.90
22682;DHT22;11508;50.856;4.380;2022-07-01T05:38:30;14.20;99.90
22682;DHT22;11508;50.856;4.380;2022-07-01T05:40:56;14.20;99.90
22682;DHT22;11508;50.856;4.380;2022-07-01T05:43:21;14.10;99.90
22682;DHT22;11508;50.856;4.380;2022-07-01T05:45:47;14.40;99.90
22682;DHT22;11508;50.856;4.380;2022-07-01T05:48:13;15.20;99.90
22682;DHT22;11508;50.856;4.380;2022-07-01T05:50:42;16.20;99.90
22682;DHT22;11508;50.856;4.380;2022-07-01T05:53:12;17.60;99.90
22682;DHT22;11508;50.856;4.380;2022-07-01T05:55:38;19.70;44.30
22682;DHT22;11508;50.856;4.380;2022-07-01T05:58:04;20.90;1.00
22682;DHT22;11508;50.856;4.380;2022-07-01T06:00:32;20.10;1.00
22682;DHT22;11508;50.856;4.380;2022-07-01T06:02:57;19.70;1.00
22682;DHT22;11508;50.856;4.380;2022-07-01T06:05:23;19.60;1.00
22682;DHT22;11508;50.856;4.380;2022-07-01T06:07:49;20.20;1.00
22682;DHT22;11508;50.856;4.380;2022-07-01T06:10:15;20.40;1.00
22682;DHT22;11508;50.856;4.380;2022-07-01T06:12:40;20.10;1.00
22682;DHT22;11508;50.856;4.380;2022-07-01T06:15:08;20.00;1.00
22682;DHT22;11508;50.856;4.380;2022-07-01T06:17:39;20.00;1.00
22682;DHT22;11508;50.856;4.380;2022-07-01T06:20:06;19.70;1.00
22682;DHT22;11508;50.856;4.380;2022-07-01T06:22:32;19.10;1.00
22682;DHT22;11508;50.856;4.380;2022-07-01T06:24:59;19.30;13.20
22682;DHT22;11508;50.856;4.380;2022-07-01T06:27:25;20.00;1.00
22682;DHT22;11508;50.856;4.380;2022-07-01T06:29:52;19.40;1.00
22682;DHT22;11508;50.856;4.380;2022-07-01T06:32:18;19.00;1.00
22682;DHT22;11508;50.856;4.380;2022-07-01T06:34:44;19.10;13.00
22682;DHT22;11508;50.856;4.380;2022-07-01T06:37:10;19.10;8.50
22682;DHT22;11508;50.856;4.380;2022-07-01T06:39:36;19.40;1.00
22682;DHT22;11508;50.856;4.380;2022-07-01T06:42:02;19.30;1.00
22682;DHT22;11508;50.856;4.380;2022-07-01T06:44:27;18.70;13.90
22682;DHT22;11508;50.856;4.380;2022-07-01T06:46:53;18.40;25.50
22682;DHT22;11508;50.856;4.380;2022-07-01T06:49:19;18.00;46.10
22682;DHT22;11508;50.856;4.380;2022-07-01T06:51:45;18.30;51.80
22682;DHT22;11508;50.856;4.380;2022-07-01T06:54:11;18.10;40.50
22682;DHT22;11508;50.856;4.380;2022-07-01T06:56:36;17.80;51.50
22682;DHT22;11508;50.856;4.380;2022-07-01T06:59:03;18.30;46.40
22682;DHT22;11508;50.856;4.380;2022-07-01T07:01:28;19.00;20.40
22682;DHT22;11508;50.856;4.380;2022-07-01T07:03:55;19.00;12.60
22682;DHT22;11508;50.856;4.380;2022-07-01T07:06:20;18.50;28.50
22682;DHT22;11508;50.856;4.380;2022-07-01T07:08:46;18.80;14.60
22682;DHT22;11508;50.856;4.380;2022-07-01T07:11:12;19.20;1.00
22682;DHT22;11508;50.856;4.380;2022-07-01T07:13:40;20.10;1.00
22682;DHT22;11508;50.856;4.380;2022-07-01T07:16:06;20.30;1.00
22682;DHT22;11508;50.856;4.380;2022-07-01T07:18:32;19.20;1.00
22682;DHT22;11508;50.856;4.380;2022-07-01T07:20:58;18.80;16.50
22682;DHT22;11508;50.856;4.380;2022-07-01T07:23:24;18.90;17.80
22682;DHT22;11508;50.856;4.380;2022-07-01T07:25:50;19.00;12.10
22682;DHT22;11508;50.856;4.380;2022-07-01T07:28:15;19.50;7.00
22682;DHT22;11508;50.856;4.380;2022-07-01T07:30:41;21.10;1.00
22682;DHT22;11508;50.856;4.380;2022-07-01T07:33:06;20.70;1.00
22682;DHT22;11508;50.856;4.380;2022-07-01T07:35:32;19.90;1.00
22682;DHT22;11508;50.856;4.380;2022-07-01T07:37:58;19.80;1.00
22682;DHT22;11508;50.856;4.380;2022-07-01T07:40:24;19.30;1.00
22682;DHT22;11508;50.856;4.380;2022-07-01T07:42:51;18.70;1.10
22682;DHT22;11508;50.856;4.380;2022-07-01T07:45:17;18.00;20.30
22682;DHT22;11508;50.856;4.380;2022-07-01T07:47:47;17.50;54.60
22682;DHT22;11508;50.856;4.380;2022-07-01T07:50:14;18.50;31.10
22682;DHT22;11508;50.856;4.380;2022-07-01T07:52:41;18.10;24.50
22682;DHT22;11508;50.856;4.380;2022-07-01T07:55:08;17.20;48.40
22682;DHT22;11508;50.856;4.380;2022-07-01T07:57:39;16.70;68.60
22682;DHT22;11508;50.856;4.380;2022-07-01T08:00:09;16.90;71.80
22682;DHT22;11508;50.856;4.380;2022-07-01T08:02:35;17.40;71.40
22682;DHT22;11508;50.856;4.380;2022-07-01T08:05:01;18.20;47.70
22682;DHT22;11508;50.856;4.380;2022-07-01T08:07:27;19.40;24.20
22682;DHT22;11508;50.856;4.380;2022-07-01T08:09:53;20.10;5.60
22682;DHT22;11508;50.856;4.380;2022-07-01T08:12:21;20.00;1.00
22682;DHT22;11508;50.856;4.380;2022-07-01T08:14:47;20.10;15.20
22682;DHT22;11508;50.856;4.380;2022-07-01T08:17:13;19.10;1.00
22682;DHT22;11508;50.856;4.380;2022-07-01T08:19:39;18.10;25.10
22682;DHT22;11508;50.856;4.380;2022-07-01T08:22:05;17.50;41.90
22682;DHT22;11508;50.856;4.380;2022-07-01T08:24:31;17.50;52.60
22682;DHT22;11508;50.856;4.380;2022-07-01T08:26:57;17.70;55.60
22682;DHT22;11508;50.856;4.380;2022-07-01T08:29:23;18.90;24.70
22682;DHT22;11508;50.856;4.380;2022-07-01T08:31:49;19.80;1.00
22682;DHT22;11508;50.856;4.380;2022-07-01T08:34:15;19.10;1.00
22682;DHT22;11508;50.856;4.380;2022-07-01T08:36:41;18.00;37.10
22682;DHT22;11508;50.856;4.380;2022-07-01T08:39:06;17.60;51.70
22682;DHT22;11508;50.856;4.380;2022-07-01T08:41:32;18.50;31.30
22682;DHT22;11508;50.856;4.380;2022-07-01T08:43:58;19.00;1.00
22682;DHT22;11508;50.856;4.380;2022-07-01T08:46:26;19.10;1.00
22682;DHT22;11508;50.856;4.380;2022-07-01T08:48:53;19.20;1.00
22682;DHT22;11508;50.856;4.380;2022-07-01T08:51:19;19.50;1.00
22682;DHT22;11508;50.856;4.380;2022-07-01T08:53:44;20.00;1.00
22682;DHT22;11508;50.856;4.380;2022-07-01T08:56:10;20.30;1.00
22682;DHT22;11508;50.856;4.380;2022-07-01T08:58:54;21.10;1.00
22682;DHT22;11508;50.856;4.380;2022-07-01T09:01:25;21.40;1.00
22682;DHT22;11508;50.856;4.380;2022-07-01T09:04:20;21.50;1.00
22682;DHT22;11508;50.856;4.380;2022-07-01T09:06:47;21.50;1.00
22682;DHT22;11508;50.856;4.380;2022-07-01T09:09:14;20.60;1.00
22682;DHT22;11508;50.856;4.380;2022-07-01T09:14:13;19.70;1.00
22682;DHT22;11508;50.856;4.380;2022-07-01T09:16:52;19.80;1.00
22682;DHT22;11508;50.856;4.380;2022-07-01T09:19:20;19.60;1.00
22682;DHT22;11508;50.856;4.380;2022-07-01T09:21:58;19.30;1.00
22682;DHT22;11508;50.856;4.380;2022-07-01T09:24:41;18.80;1.00
22682;DHT22;11508;50.856;4.380;2022-07-01T09:27:10;18.60;1.00
22682;DHT22;11508;50.856;4.380;2022-07-01T09:29:41;19.10;1.00
22682;DHT22;11508;50.856;4.380;2022-07-01T09:32:09;19.90;1.00
22682;DHT22;11508;50.856;4.380;2022-07-01T09:34:41;19.40;1.00
22682;DHT22;11508;50.856;4.380;2022-07-01T09:37:07;19.90;1.00
22682;DHT22;11508;50.856;4.380;2022-07-01T09:39:54;20.10;1.00
22682;DHT22;11508;50.856;4.380;2022-07-01T09:42:22;19.60;1.00
22682;DHT22;11508;50.856;4.380;2022-07-01T09:45:05;19.20;1.00
22682;DHT22;11508;50.856;4.380;2022-07-01T09:47:39;19.40;1.00
22682;DHT22;11508;50.856;4.380;2022-07-01T09:50:06;18.90;1.00
22682;DHT22;11508;50.856;4.380;2022-07-01T09:52:34;18.30;1.00
22682;DHT22;11508;50.856;4.380;2022-07-01T09:55:00;18.30;1.00
22682;DHT22;11508;50.856;4.380;2022-07-01T09:57:26;18.30;1.00
22682;DHT22;11508;50.856;4.380;2022-07-01T09:59:52;18.20;1.00
22682;DHT22;11508;50.856;4.380;2022-07-01T10:02:19;18.10;1.00
22682;DHT22;11508;50.856;4.380;2022-07-01T10:04:53;18.90;1.00
22682;DHT22;11508;50.856;4.380;2022-07-01T10:10:02;20.40;1.00
22682;DHT22;11508;50.856;4.380;2022-07-01T10:12:40;21.00;99.90
22682;DHT22;11508;50.856;4.380;2022-07-01T10:15:09;20.80;99.90
22682;DHT22;11508;50.856;4.380;2022-07-01T10:17:41;20.70;99.90
22682;DHT22;11508;50.856;4.380;2022-07-01T10:20:14;21.00;99.90
22682;DHT22;11508;50.856;4.380;2022-07-01T10:22:41;21.90;99.90
22682;DHT22;11508;50.856;4.380;2022-07-01T10:30:49;21.60;99.90
22682;DHT22;11508;50.856;4.380;2022-07-01T10:38:36;21.20;99.90
22682;DHT22;11508;50.856;4.380;2022-07-01T10:41:25;20.90;99.90
22682;DHT22;11508;50.856;4.380;2022-07-01T10:43:51;20.20;99.90
22682;DHT22;11508;50.856;4.380;2022-07-01T10:46:44;19.50;99.90
22682;DHT22;11508;50.856;4.380;2022-07-01T10:49:16;19.10;99.90
22682;DHT22;11508;50.856;4.380;2022-07-01T10:51:47;19.20;99.90
22682;DHT22;11508;50.856;4.380;2022-07-01T10:54:36;19.40;99.90
22682;DHT22;11508;50.856;4.380;2022-07-01T11:03:08;20.60;99.90
22682;DHT22;11508;50.856;4.380;2022-07-01T11:05:34;20.20;99.90
22682;DHT22;11508;50.856;4.380;2022-07-01T11:08:03;19.90;99.90
22682;DHT22;11508;50.856;4.380;2022-07-01T11:10:29;19.70;99.90
22682;DHT22;11508;50.856;4.380;2022-07-01T11:12:56;19.30;99.90
22682;DHT22;11508;50.856;4.380;2022-07-01T11:15:22;19.30;99.90
22682;DHT22;11508;50.856;4.380;2022-07-01T11:17:49;19.70;99.90
22682;DHT22;11508;50.856;4.380;2022-07-01T11:20:16;20.60;99.90
22682;DHT22;11508;50.856;4.380;2022-07-01T11:22:41;20.80;99.90
22682;DHT22;11508;50.856;4.380;2022-07-01T11:25:11;20.60;99.90
22682;DHT22;11508;50.856;4.380;2022-07-01T11:27:38;21.00;99.90
22682;DHT22;11508;50.856;4.380;2022-07-01T11:30:05;20.90;99.90
22682;DHT22;11508;50.856;4.380;2022-07-01T11:32:35;21.30;99.90
22682;DHT22;11508;50.856;4.380;2022-07-01T11:35:04;21.50;99.90
22682;DHT22;11508;50.856;4.380;2022-07-01T11:37:50;21.80;99.90
22682;DHT22;11508;50.856;4.380;2022-07-01T11:40:34;22.50;47.20
22682;DHT22;11508;50.856;4.380;2022-07-01T11:43:00;22.60;1.00
22682;DHT22;11508;50.856;4.380;2022-07-01T11:45:26;21.30;1.00
22682;DHT22;11508;50.856;4.380;2022-07-01T11:47:53;20.60;99.90
22682;DHT22;11508;50.856;4.380;2022-07-01T11:50:20;20.40;99.90
22682;DHT22;11508;50.856;4.380;2022-07-01T11:52:46;20.20;99.90
22682;DHT22;11508;50.856;4.380;2022-07-01T11:55:12;20.40;99.90
22682;DHT22;11508;50.856;4.380;2022-07-01T11:57:38;21.40;99.90
22682;DHT22;11508;50.856;4.380;2022-07-01T12:00:11;21.30;99.90
22682;DHT22;11508;50.856;4.380;2022-07-01T12:02:38;21.20;99.90
22682;DHT22;11508;50.856;4.380;2022-07-01T12:05:05;20.90;72.90
22682;DHT22;11508;50.856;4.380;2022-07-01T12:07:31;20.30;95.80
22682;DHT22;11508;50.856;4.380;2022-07-01T12:09:58;20.70;99.90
22682;DHT22;11508;50.856;4.380;2022-07-01T12:12:24;21.20;99.90
22682;DHT22;11508;50.856;4.380;2022-07-01T12:14:58;20.70;1.00
22682;DHT22;11508;50.856;4.380;2022-07-01T12:17:25;20.30;56.40
22682;DHT22;11508;50.856;4.380;2022-07-01T12:19:53;20.70;49.10
22682;DHT22;11508;50.856;4.380;2022-07-01T12:22:23;21.10;1.00
22682;DHT22;11508;50.856;4.380;2022-07-01T12:24:51;21.80;1.00
22682;DHT22;11508;50.856;4.380;2022-07-01T12:27:20;22.10;99.90
22682;DHT22;11508;50.856;4.380;2022-07-01T12:32:24;21.70;99.90
22682;DHT22;11508;50.856;4.380;2022-07-01T12:34:58;22.00;99.90
22682;DHT22;11508;50.856;4.380;2022-07-01T12:37:35;22.20;99.90
22682;DHT22;11508;50.856;4.380;2022-07-01T12:40:07;22.60;99.90
22682;DHT22;11508;50.856;4.380;2022-07-01T12:42:42;22.00;99.90
22682;DHT22;11508;50.856;4.380;2022-07-01T12:45:10;21.80;99.90
22682;DHT22;11508;50.856;4.380;2022-07-01T12:47:45;21.70;99.90
22682;DHT22;11508;50.856;4.380;2022-07-01T12:50:14;21.90;99.90
22682;DHT22;11508;50.856;4.380;2022-07-01T12:55:42;21.80;99.90
22682;DHT22;11508;50.856;4.380;2022-07-01T12:58:10;22.00;90.10
22682;DHT22;11508;50.856;4.380;2022-07-01T13:00:38;21.90;99.90
22682;DHT22;11508;50.856;4.380;2022-07-01T13:03:05;22.00;1.00
22682;DHT22;11508;50.856;4.380;2022-07-01T13:05:32;21.80;1.00
22682;DHT22;11508;50.856;4.380;2022-07-01T13:07:58;21.90;4.90
22682;DHT22;11508;50.856;4.380;2022-07-01T13:10:24;21.80;13.80
22682;DHT22;11508;50.856;4.380;2022-07-01T13:12:50;21.80;99.90
22682;DHT22;11508;50.856;4.380;2022-07-01T13:15:18;21.90;56.80
22682;DHT22;11508;50.856;4.380;2022-07-01T13:17:45;22.00;99.90
22682;DHT22;11508;50.856;4.380;2022-07-01T13:20:12;21.80;47.20
22682;DHT22;11508;50.856;4.380;2022-07-01T13:22:38;22.10;37.60
22682;DHT22;11508;50.856;4.380;2022-07-01T13:25:05;22.30;6.80
22682;DHT22;11508;50.856;4.380;2022-07-01T13:27:31;22.20;1.00
22682;DHT22;11508;50.856;4.380;2022-07-01T13:29:57;22.10;1.00
22682;DHT22;11508;50.856;4.380;2022-07-01T13:32:24;22.10;1.00
22682;DHT22;11508;50.856;4.380;2022-07-01T13:34:50;21.60;53.80
22682;DHT22;11508;50.856;4.380;2022-07-01T13:37:16;21.60;99.90
22682;DHT22;11508;50.856;4.380;2022-07-01T13:39:42;21.70;99.90
22682;DHT22;11508;50.856;4.380;2022-07-01T13:42:14;21.50;99.90
22682;DHT22;11508;50.856;4.380;2022-07-01T13:44:39;21.60;99.90
22682;DHT22;11508;50.856;4.380;2022-07-01T13:47:05;21.30;99.90
22682;DHT22;11508;50.856;4.380;2022-07-01T13:49:35;21.20;99.90
22682;DHT22;11508;50.856;4.380;2022-07-01T13:52:01;21.10;99.90
22682;DHT22;11508;50.856;4.380;2022-07-01T13:54:27;20.90;99.90
22682;DHT22;11508;50.856;4.380;2022-07-01T13:56:52;21.20;99.90
22682;DHT22;11508;50.856;4.380;2022-07-01T13:59:18;21.30;1.00
22682;DHT22;11508;50.856;4.380;2022-07-01T14:01:44;21.10;1.00
22682;DHT22;11508;50.856;4.380;2022-07-01T14:04:10;21.00;1.00
22682;DHT22;11508;50.856;4.380;2022-07-01T14:06:37;21.10;1.00
22682;DHT22;11508;50.856;4.380;2022-07-01T14:09:03;21.10;1.00
22682;DHT22;11508;50.856;4.380;2022-07-01T14:11:29;20.90;1.00
22682;DHT22;11508;50.856;4.380;2022-07-01T14:13:55;20.60;1.00
22682;DHT22;11508;50.856;4.380;2022-07-01T14:16:21;20.40;22.30
22682;DHT22;11508;50.856;4.380;2022-07-01T14:18:50;20.20;43.90
22682;DHT22;11508;50.856;4.380;2022-07-01T14:21:17;20.20;62.90
22682;DHT22;11508;50.856;4.380;2022-07-01T14:23:44;20.40;64.10
22682;DHT22;11508;50.856;4.380;2022-07-01T14:26:09;20.40;66.80
22682;DHT22;11508;50.856;4.380;2022-07-01T14:28:35;20.30;99.90
22682;DHT22;11508;50.856;4.380;2022-07-01T14:31:01;20.30;99.90
22682;DHT22;11508;50.856;4.380;2022-07-01T14:33:26;20.40;99.90
22682;DHT22;11508;50.856;4.380;2022-07-01T14:35:52;20.50;99.90
22682;DHT22;11508;50.856;4.380;2022-07-01T14:38:18;20.70;99.90
22682;DHT22;11508;50.856;4.380;2022-07-01T14:40:44;21.10;99.90
22682;DHT22;11508;50.856;4.380;2022-07-01T14:43:10;21.50;99.90
22682;DHT22;11508;50.856;4.380;2022-07-01T14:45:36;21.70;50.90
22682;DHT22;11508;50.856;4.380;2022-07-01T14:48:02;21.80;16.00
22682;DHT22;11508;50.856;4.380;2022-07-01T14:50:28;21.90;1.00
22682;DHT22;11508;50.856;4.380;2022-07-01T14:52:55;21.60;1.00
22682;DHT22;11508;50.856;4.380;2022-07-01T14:55:21;21.60;12.20
22682;DHT22;11508;50.856;4.380;2022-07-01T14:57:47;21.60;28.70
22682;DHT22;11508;50.856;4.380;2022-07-01T15:00:13;21.10;44.60
22682;DHT22;11508;50.856;4.380;2022-07-01T15:02:39;21.10;99.30
22682;DHT22;11508;50.856;4.380;2022-07-01T15:05:05;21.00;99.90
22682;DHT22;11508;50.856;4.380;2022-07-01T15:07:31;21.10;99.90
22682;DHT22;11508;50.856;4.380;2022-07-01T15:09:56;21.00;99.90
22682;DHT22;11508;50.856;4.380;2022-07-01T15:12:25;20.90;17.70
22682;DHT22;11508;50.856;4.380;2022-07-01T15:14:51;21.10;99.90
22682;DHT22;11508;50.856;4.380;2022-07-01T15:17:16;21.20;99.90
22682;DHT22;11508;50.856;4.380;2022-07-01T15:19:42;20.90;99.90
22682;DHT22;11508;50.856;4.380;2022-07-01T15:22:09;21.00;99.90
22682;DHT22;11508;50.856;4.380;2022-07-01T15:24:35;20.80;99.90
22682;DHT22;11508;50.856;4.380;2022-07-01T15:27:01;20.90;99.90
22682;DHT22;11508;50.856;4.380;2022-07-01T15:29:28;21.10;99.90
22682;DHT22;11508;50.856;4.380;2022-07-01T15:31:54;20.70;99.90
22682;DHT22;11508;50.856;4.380;2022-07-01T15:34:20;20.30;99.90
22682;DHT22;11508;50.856;4.380;2022-07-01T15:36:46;20.10;99.90
22682;DHT22;11508;50.856;4.380;2022-07-01T15:39:12;20.20;99.90
22682;DHT22;11508;50.856;4.380;2022-07-01T15:41:39;20.40;99.90
22682;DHT22;11508;50.856;4.380;2022-07-01T15:44:05;20.60;99.90
22682;DHT22;11508;50.856;4.380;2022-07-01T15:46:32;20.90;99.90
22682;DHT22;11508;50.856;4.380;2022-07-01T15:48:58;21.00;99.90
22682;DHT22;11508;50.856;4.380;2022-07-01T15:51:24;21.00;99.90
22682;DHT22;11508;50.856;4.380;2022-07-01T15:53:51;21.00;99.90
22682;DHT22;11508;50.856;4.380;2022-07-01T15:56:17;20.90;99.90
22682;DHT22;11508;50.856;4.380;2022-07-01T15:58:43;21.10;99.90
22682;DHT22;11508;50.856;4.380;2022-07-01T16:01:09;20.90;99.90
22682;DHT22;11508;50.856;4.380;2022-07-01T16:03:35;21.10;99.90
22682;DHT22;11508;50.856;4.380;2022-07-01T16:06:07;21.40;99.90